Time;durP1;ratioP1;P1;durP2;ratioP2;P2;SDS_P1;SDS_P2;PMS_P1;PMS_P2;Temp;Humidity;BMP_temperature;BMP_pressure;BME280_temperature;BME280_humidity;BME280_pressure;Samples;Min_cycle;Max_cycle;Signal;HPM_P1;HPM_P2
2022/10/04 00:02:40;;;;;;;;;2.50;2.00;;;;;27.76;100.00;101403.22;5080215;27;51365;-45
2022/10/04 00:05:25;;;;;;;;;6.50;4.00;;;;;27.76;100.00;101401.41;5077292;27;51150;-45
2022/10/04 00:08:26;;;;;;;;;4.25;3.25;;;;;27.77;100.00;101394.06;5078268;27;51094;-44
2022/10/04 00:11:26;;;;;;;;;4.25;4.25;;;;;27.72;100.00;101382.56;5073737;27;51665;-45
2022/10/04 00:14:21;;;;;;;;;4.25;4.00;;;;;27.71;100.00;101386.28;5076464;27;51274;-45
2022/10/04 00:17:28;;;;;;;;;8.00;5.00;;;;;27.64;100.00;101364.78;5077449;27;51412;-45
2022/10/04 00:20:49;;;;;;;;;6.25;4.00;;;;;27.63;100.00;101368.50;5077598;27;51158;-45
2022/10/04 00:23:36;;;;;;;;;4.25;4.25;;;;;27.64;100.00;101362.06;5078853;27;52047;-45
2022/10/04 00:26:29;;;;;;;;;5.50;3.50;;;;;27.64;100.00;101364.78;5079030;27;51338;-45
2022/10/04 00:29:34;;;;;;;;;3.75;3.25;;;;;27.65;100.00;101358.34;5077514;27;51436;-45
2022/10/04 00:32:30;;;;;;;;;5.25;3.75;;;;;27.66;100.00;101354.63;5080039;27;51134;-45
2022/10/04 00:35:24;;;;;;;;;4.75;3.00;;;;;27.65;100.00;101341.09;5076612;27;51002;-44
2022/10/04 00:38:14;;;;;;;;;7.00;4.00;;;;;27.64;100.00;101344.78;5078422;27;51133;-45
2022/10/04 00:41:05;;;;;;;;;4.50;4.50;;;;;27.62;100.00;101339.41;5079137;27;51419;-45
2022/10/04 00:43:50;;;;;;;;;4.25;4.00;;;;;27.65;100.00;101347.41;5075351;27;51427;-44
2022/10/04 00:46:35;;;;;;;;;3.00;3.00;;;;;27.67;100.00;101337.25;5078358;27;51192;-46
2022/10/04 00:49:22;;;;;;;;;6.00;3.75;;;;;27.67;100.00;101320.84;5077430;27;51133;-45
2022/10/04 00:52:18;;;;;;;;;4.00;3.50;;;;;27.65;100.00;101317.34;5078085;27;51041;-45
2022/10/04 00:55:06;;;;;;;;;6.25;4.00;;;;;27.65;100.00;101330.16;5078382;27;51216;-45
2022/10/04 00:57:58;;;;;;;;;4.00;3.00;;;;;27.65;100.00;101322.81;5077531;27;51237;-45
2022/10/04 01:00:44;;;;;;;;;3.50;3.50;;;;;27.64;100.00;101318.31;5071823;27;51184;-46
2022/10/04 01:03:32;;;;;;;;;5.00;4.00;;;;;27.64;100.00;101318.31;5077904;27;51350;-45
2022/10/04 01:06:19;;;;;;;;;4.25;4.25;;;;;27.66;100.00;101324.56;5078117;27;51165;-45
2022/10/04 01:09:08;;;;;;;;;6.50;5.25;;;;;27.66;100.00;101316.38;5073810;27;51110;-45
2022/10/04 01:12:04;;;;;;;;;4.75;4.25;;;;;27.68;100.00;101298.00;5076197;27;51155;-45
2022/10/04 01:15:04;;;;;;;;;5.50;3.25;;;;;27.68;100.00;101297.13;5074567;27;51265;-46
2022/10/04 01:18:27;;;;;;;;;6.75;5.00;;;;;27.69;100.00;101296.13;5074536;27;51147;-45
2022/10/04 01:21:18;;;;;;;;;5.50;5.00;;;;;27.68;100.00;101288.91;5075511;27;51429;-45
2022/10/04 01:24:07;;;;;;;;;2.25;2.25;;;;;27.66;100.00;101286.28;5078329;27;51240;-46
2022/10/04 01:26:53;;;;;;;;;7.75;4.25;;;;;27.63;100.00;101281.03;5072687;27;51265;-46
2022/10/04 01:29:38;;;;;;;;;3.75;3.75;;;;;27.62;100.00;101275.66;5073277;27;51493;-45
2022/10/04 01:32:22;;;;;;;;;5.25;3.00;;;;;27.60;100.00;101275.78;5077560;28;51300;-45
2022/10/04 01:35:10;;;;;;;;;3.50;3.00;;;;;27.52;100.00;101265.34;5077550;27;51265;-45
2022/10/04 01:37:54;;;;;;;;;7.00;3.50;;;;;27.55;100.00;101277.94;5076948;27;51409;-45
2022/10/04 01:40:53;;;;;;;;;6.00;3.25;;;;;27.56;100.00;101276.09;5071763;27;51424;-44
2022/10/04 01:43:40;;;;;;;;;4.50;3.00;;;;;27.52;100.00;101268.09;5077429;27;51283;-45
2022/10/04 01:46:35;;;;;;;;;11.00;4.00;;;;;27.53;100.00;101275.31;5060712;28;51113;-45
2022/10/04 01:49:24;;;;;;;;;4.00;4.00;;;;;27.51;100.00;101273.66;5080675;27;51112;-45
2022/10/04 01:52:21;;;;;;;;;8.00;5.00;;;;;27.50;100.00;101271.91;5080486;27;51172;-45
2022/10/04 01:55:23;;;;;;;;;4.75;3.00;;;;;27.49;100.00;101270.16;5078447;27;51468;-45
2022/10/04 01:58:44;;;;;;;;;4.75;3.25;;;;;27.46;100.00;101257.56;5077987;27;51130;-45
2022/10/04 02:01:34;;;;;;;;;4.00;3.75;;;;;27.44;100.00;101256.81;5069245;27;51417;-45
2022/10/04 02:04:22;;;;;;;;;5.50;3.25;;;;;27.43;100.00;101255.00;5083318;27;51128;-45
2022/10/04 02:07:15;;;;;;;;;6.00;4.00;;;;;27.43;100.00;101259.59;5076884;27;51253;-45
2022/10/04 02:10:03;;;;;;;;;4.50;4.00;;;;;27.40;100.00;101262.53;5076382;27;51202;-45
2022/10/04 02:12:53;;;;;;;;;4.50;3.75;;;;;27.30;100.00;101248.59;5081825;27;51410;-46
2022/10/04 02:15:38;;;;;;;;;6.25;3.75;;;;;27.36;100.00;101270.94;5080336;27;51087;-45
2022/10/04 02:18:24;;;;;;;;;5.00;3.50;;;;;27.32;100.00;101261.19;5081130;27;51137;-44
2022/10/04 02:21:10;;;;;;;;;4.75;3.00;;;;;27.38;100.00;101263.53;5080161;27;51181;-45
2022/10/04 02:23:56;;;;;;;;;6.50;4.25;;;;;27.39;100.00;101258.91;5083062;27;51220;-45
2022/10/04 02:26:40;;;;;;;;;6.00;3.00;;;;;27.30;100.00;101245.88;5082052;27;51191;-44
2022/10/04 02:29:25;;;;;;;;;4.00;4.00;;;;;27.33;100.00;101249.28;5078899;27;51102;-45
2022/10/04 02:35:17;;;;;;;;;8.50;4.00;;;;;27.33;100.00;101253.88;5074620;27;51168;-45
2022/10/04 02:38:22;;;;;;;;;4.25;3.00;;;;;27.33;100.00;101262.06;5081812;27;51313;-45
2022/10/04 02:41:33;;;;;;;;;5.75;4.00;;;;;27.33;100.00;101259.34;5074668;27;51058;-46
2022/10/04 02:44:23;;;;;;;;;5.25;4.50;;;;;27.33;100.00;101249.28;5081989;27;51384;-44
2022/10/04 02:47:18;;;;;;;;;3.75;2.25;;;;;27.32;100.00;101246.66;5080511;27;51531;-46
2022/10/04 02:50:12;;;;;;;;;4.00;4.00;;;;;27.30;100.00;101252.19;5080740;27;51501;-44
2022/10/04 02:53:01;;;;;;;;;5.00;3.25;;;;;27.29;100.00;101255.03;5080318;27;51122;-45
2022/10/04 02:55:46;;;;;;;;;1.25;1.00;;;;;27.30;100.00;101262.28;5081270;27;51210;-45
2022/10/04 02:58:32;;;;;;;;;4.25;2.50;;;;;27.31;100.00;101258.56;5080750;27;51962;-45
2022/10/04 03:01:25;;;;;;;;;4.00;2.75;;;;;27.32;100.00;101257.59;5071505;27;51095;-45
2022/10/04 03:04:12;;;;;;;;;3.75;3.00;;;;;27.30;100.00;101252.19;5079154;27;51197;-45
2022/10/04 03:06:59;;;;;;;;;6.50;4.25;;;;;27.31;100.00;101250.38;5077752;27;51152;-46
2022/10/04 03:09:44;;;;;;;;;5.75;2.50;;;;;27.29;100.00;101258.66;5081858;27;51136;-45
2022/10/04 03:12:30;;;;;;;;;5.00;3.00;;;;;27.30;100.00;101263.13;5079290;27;51128;-45
2022/10/04 03:15:15;;;;;;;;;12.50;6.50;;;;;27.33;100.00;101262.94;5077117;27;51289;-45
2022/10/04 03:17:59;;;;;;;;;4.00;4.00;;;;;27.33;100.00;101254.75;5080875;27;51176;-45
2022/10/04 03:20:45;;;;;;;;;3.25;3.25;;;;;27.36;100.00;101268.22;5076649;27;51125;-45
2022/10/04 03:23:32;;;;;;;;;6.50;3.50;;;;;27.32;100.00;101258.44;5077970;27;51060;-45
2022/10/04 03:26:35;;;;;;;;;2.75;2.00;;;;;27.37;100.00;101275.44;5079843;27;51052;-45
2022/10/04 03:29:23;;;;;;;;;5.00;4.00;;;;;27.37;100.00;101272.69;5073978;27;51328;-45
2022/10/04 03:32:12;;;;;;;;;3.00;3.00;;;;;27.39;100.00;101275.31;5079904;27;51527;-45
2022/10/04 03:34:59;;;;;;;;;3.00;3.00;;;;;27.43;100.00;101275.97;5081361;27;51128;-46
2022/10/04 03:37:44;;;;;;;;;3.75;2.75;;;;;27.43;100.00;101273.25;5079639;27;51134;-45
2022/10/04 03:40:30;;;;;;;;;4.25;2.25;;;;;27.42;100.00;101275.13;5079259;27;51425;-45
2022/10/04 03:43:15;;;;;;;;;5.50;4.00;;;;;27.44;100.00;101281.41;5081148;27;51070;-45
2022/10/04 03:46:01;;;;;;;;;5.00;5.00;;;;;27.43;100.00;101284.19;5079446;27;51038;-46
2022/10/04 03:48:51;;;;;;;;;6.00;4.00;;;;;27.40;100.00;101289.88;5074545;27;51148;-45
2022/10/04 03:51:37;;;;;;;;;5.00;4.75;;;;;27.40;100.00;101292.59;5078967;27;51245;-45
2022/10/04 03:54:22;;;;;;;;;6.00;3.00;;;;;27.42;100.00;101304.28;5078250;27;52546;-45
2022/10/04 03:57:11;;;;;;;;;5.50;4.75;;;;;27.44;100.00;101302.38;5077218;27;51202;-45
2022/10/04 03:59:56;;;;;;;;;6.50;4.75;;;;;27.47;100.00;101315.84;5078984;27;52183;-46
2022/10/04 04:02:55;;;;;;;;;5.50;4.50;;;;;27.48;100.00;101312.13;5077970;27;51618;-45
2022/10/04 04:05:46;;;;;;;;;5.25;4.25;;;;;27.50;100.00;101301.97;5077785;27;51151;-45
2022/10/04 04:08:39;;;;;;;;;4.25;4.25;;;;;27.51;100.00;101306.47;5080008;27;51219;-45
2022/10/04 04:11:25;;;;;;;;;5.25;4.25;;;;;27.51;100.00;101303.75;5072952;27;51157;-45
2022/10/04 04:14:16;;;;;;;;;4.00;4.00;;;;;27.47;100.00;101302.16;5080889;27;51538;-44
2022/10/04 04:17:27;;;;;;;;;7.75;7.00;;;;;27.49;100.00;101313.88;5076344;27;51252;-44
2022/10/04 04:20:25;;;;;;;;;4.75;4.75;;;;;27.47;100.00;101311.22;5078703;27;51536;-44
2022/10/04 04:23:27;;;;;;;;;6.25;4.25;;;;;27.44;100.00;101310.56;5070677;27;51164;-45
2022/10/04 04:26:18;;;;;;;;;9.50;5.50;;;;;27.44;100.00;101326.97;5077906;27;51390;-45
2022/10/04 04:29:12;;;;;;;;;6.50;5.75;;;;;27.38;100.00;101312.72;5078752;27;51477;-45
2022/10/04 04:32:03;;;;;;;;;9.00;6.00;;;;;27.42;100.00;101318.84;5076271;27;51045;-45
2022/10/04 04:34:51;;;;;;;;;3.00;3.00;;;;;27.43;100.00;101320.59;5077828;27;51190;-46
2022/10/04 04:37:37;;;;;;;;;7.75;7.75;;;;;27.46;100.00;101331.34;5078248;27;51148;-45
2022/10/04 04:40:24;;;;;;;;;6.25;6.25;;;;;27.46;100.00;101325.88;5078358;27;51572;-46
2022/10/04 04:43:14;;;;;;;;;8.00;6.50;;;;;27.46;100.00;101325.88;5078824;27;51070;-45
2022/10/04 04:45:59;;;;;;;;;6.00;6.00;;;;;27.46;100.00;101335.94;5077694;27;51393;-45
2022/10/04 04:48:44;;;;;;;;;9.00;5.00;;;;;27.44;100.00;101333.31;5076310;27;51355;-45
2022/10/04 04:51:31;;;;;;;;;8.00;6.25;;;;;27.38;100.00;101329.09;5077941;27;51217;-45
2022/10/04 04:54:22;;;;;;;;;6.00;6.00;;;;;27.36;100.00;101330.16;5064456;27;51071;-44
2022/10/04 04:57:07;;;;;;;;;10.00;7.00;;;;;27.35;100.00;101332.03;5076007;27;51528;-45
2022/10/04 04:59:56;;;;;;;;;8.75;6.00;;;;;27.34;100.00;101326.69;5077119;27;51204;-45
2022/10/04 05:02:50;;;;;;;;;7.50;6.00;;;;;27.33;100.00;101336.72;5077775;27;52090;-45
2022/10/04 05:05:35;;;;;;;;;7.25;7.00;;;;;27.32;100.00;101345.03;5077745;27;51246;-45
2022/10/04 05:08:20;;;;;;;;;5.75;5.25;;;;;27.32;100.00;101339.56;5077980;27;51134;-45
2022/10/04 05:11:07;;;;;;;;;7.00;5.00;;;;;27.32;100.00;101342.28;5078919;27;51418;-45
2022/10/04 05:13:56;;;;;;;;;9.25;5.50;;;;;27.33;100.00;101344.03;5077730;27;51199;-45
2022/10/04 05:16:43;;;;;;;;;8.75;6.25;;;;;27.33;100.00;101344.03;5077135;27;51118;-45
2022/10/04 05:19:34;;;;;;;;;9.50;8.00;;;;;27.32;100.00;101347.75;5077770;28;51235;-46
2022/10/04 05:22:22;;;;;;;;;11.75;9.25;;;;;27.29;100.00;101346.09;5077128;27;51433;-46
2022/10/04 05:25:14;;;;;;;;;8.25;8.00;;;;;27.30;100.00;101344.22;5082879;27;51283;-45
2022/10/04 05:27:59;;;;;;;;;11.25;10.25;;;;;27.29;100.00;101343.38;5080937;27;51145;-45
2022/10/04 05:31:01;;;;;;;;;9.00;8.00;;;;;27.30;100.00;101344.22;5077051;27;51112;-45
2022/10/04 05:33:50;;;;;;;;;8.00;6.00;;;;;27.30;100.00;101358.75;5077225;27;51158;-46
2022/10/04 05:36:40;;;;;;;;;11.50;7.75;;;;;27.29;100.00;101354.31;5079450;27;51224;-45
2022/10/04 05:39:56;;;;;;;;;10.75;7.25;;;;;27.30;100.00;101347.81;5082689;27;51109;-50
2022/10/04 05:42:48;;;;;;;;;8.00;7.00;;;;;27.32;100.00;101356.81;5072472;27;51128;-38
2022/10/04 05:45:33;;;;;;;;;5.00;4.75;;;;;27.38;100.00;101361.91;5079892;27;51125;-39
2022/10/04 05:48:18;;;;;;;;;6.25;6.25;;;;;27.46;100.00;101361.41;5076164;27;51455;-38
2022/10/04 05:51:17;;;;;;;;;8.50;7.00;;;;;27.58;100.00;101369.78;5080543;27;51140;-38
2022/10/04 05:54:02;;;;;;;;;6.75;4.75;;;;;27.66;100.00;101368.31;5081003;27;51098;-38
2022/10/04 05:56:54;;;;;;;;;5.00;5.00;;;;;27.77;100.00;101366.72;5081384;27;51500;-38
2022/10/04 05:59:57;;;;;;;;;12.50;6.00;;;;;27.87;100.00;101369.72;5076847;27;51121;-38
2022/10/04 06:03:06;;;;;;;;;6.75;6.75;;;;;27.98;100.00;101370.75;5081446;27;51699;-39
2022/10/04 06:05:59;;;;;;;;;7.50;7.50;;;;;28.14;100.00;101376.09;5081196;27;51085;-41
2022/10/04 06:09:16;;;;;;;;;7.50;7.00;;;;;28.38;100.00;101379.97;5081410;27;51088;-38
2022/10/04 06:12:10;;;;;;;;;10.75;9.75;;;;;28.65;100.00;101381.78;5075021;27;51076;-39
2022/10/04 06:15:30;;;;;;;;;9.00;9.00;;;;;29.06;100.00;101388.94;5081657;27;51520;-39
2022/10/04 06:18:33;;;;;;;;;10.75;7.50;;;;;29.73;100.00;101381.38;5082810;27;51171;-39
2022/10/04 06:21:23;;;;;;;;;9.00;7.25;;;;;30.14;100.00;101378.28;5081417;27;51148;-39
2022/10/04 06:24:16;;;;;;;;;9.50;6.00;;;;;30.46;100.00;101379.50;5077190;27;52017;-38
2022/10/04 06:27:08;;;;;;;;;8.50;5.75;;;;;30.90;100.00;101374.28;5081111;27;51173;-39
2022/10/04 06:30:24;;;;;;;;;7.00;5.50;;;;;31.05;100.00;101367.53;5081930;27;51106;-39
2022/10/04 06:33:36;;;;;;;;;8.50;5.25;;;;;30.99;100.00;101373.56;5077620;27;51112;-38
2022/10/04 06:36:55;;;;;;;;;6.25;5.75;;;;;31.40;100.00;101373.94;5080153;27;51161;-39
2022/10/04 06:40:25;;;;;;;;;9.00;6.25;;;;;32.24;100.00;101362.38;5079771;27;51152;-41
2022/10/04 06:43:35;;;;;;;;;11.25;6.75;;;;;33.05;100.00;101349.84;5063677;27;51306;-38
2022/10/04 06:46:35;;;;;;;;;8.00;8.00;;;;;33.51;100.00;101320.00;5080745;27;51271;-39
2022/10/04 06:49:38;;;;;;;;;7.75;7.50;;;;;33.73;100.00;101326.28;5081035;27;51164;-38
2022/10/04 06:52:54;;;;;;;;;10.50;5.75;;;;;34.22;100.00;101321.69;5081398;27;51053;-37
2022/10/04 06:56:05;;;;;;;;;6.75;5.50;;;;;34.93;100.00;101305.69;5079597;27;51099;-38
2022/10/04 06:59:10;;;;;;;;;4.25;3.00;;;;;35.96;100.00;101315.72;5081348;27;51475;-40
2022/10/04 07:02:02;;;;;;;;;3.00;3.00;;;;;37.12;100.00;101302.69;5074791;27;51065;-38
2022/10/04 07:05:16;;;;;;;;;5.25;2.00;;;;;38.21;100.00;101300.84;5080231;27;51146;-38
2022/10/04 07:08:37;;;;;;;;;5.50;2.25;;;;;39.38;100.00;101307.88;5075980;27;51081;-38
2022/10/04 07:11:29;;;;;;;;;2.00;1.75;;;;;40.10;100.00;101295.53;5076992;27;51152;-39
2022/10/04 07:14:31;;;;;;;;;3.25;3.25;;;;;40.78;100.00;101296.66;5078029;27;51150;-38
2022/10/04 07:17:25;;;;;;;;;5.75;5.00;;;;;41.53;100.00;101294.66;5082039;27;51006;-39
2022/10/04 07:20:21;;;;;;;;;5.50;3.50;;;;;41.31;100.00;101293.72;5075128;27;51161;-39
2022/10/04 07:23:27;;;;;;;;;2.75;2.75;;;;;41.72;100.00;101292.28;5076629;27;51189;-40
2022/10/04 07:26:36;;;;;;;;;2.00;2.00;;;;;42.48;100.00;101290.81;5067653;27;51498;-39
2022/10/04 07:29:22;;;;;;;;;6.00;2.50;;;;;43.25;100.00;101288.91;5079906;27;51255;-38
2022/10/04 07:32:37;;;;;;;;;3.00;2.50;;;;;43.92;100.00;101294.66;5078514;27;51122;-38
2022/10/04 07:35:24;;;;;;;;;4.00;4.00;;;;;44.27;100.00;101300.09;5080151;27;51230;-39
2022/10/04 07:38:12;;;;;;;;;3.00;2.25;;;;;44.93;100.00;101303.03;5079232;27;52100;-39
2022/10/04 07:41:02;;;;;;;;;1.00;1.00;;;;;45.38;100.00;101306.97;5080308;27;50998;-38
2022/10/04 07:44:14;;;;;;;;;0.75;0.00;;;;;45.58;100.00;101312.47;5079556;27;51053;-38
2022/10/04 07:47:20;;;;;;;;;1.25;1.25;;;;;45.99;100.00;101319.59;5066688;27;51568;-40
2022/10/04 07:50:25;;;;;;;;;2.00;1.25;;;;;46.69;100.00;101312.03;5076662;27;51122;-39
2022/10/04 07:53:41;;;;;;;;;2.50;1.00;;;;;47.17;100.00;101322.53;5079597;27;51149;-38
2022/10/04 07:56:39;;;;;;;;;2.75;2.75;;;;;47.35;100.00;101331.19;5076502;27;51168;-39
2022/10/04 07:59:39;;;;;;;;;2.25;2.25;;;;;47.29;100.00;101342.34;5077916;27;51409;-39
2022/10/04 08:02:43;;;;;;;;;7.00;3.25;;;;;46.32;100.00;101343.75;5079747;27;51411;-39
2022/10/04 08:05:41;;;;;;;;;7.50;7.50;;;;;44.37;100.00;101352.06;5078488;27;51465;-39
2022/10/04 08:08:50;;;;;;;;;7.00;4.00;;;;;42.55;100.00;101344.88;5077910;27;51030;-39
2022/10/04 08:12:07;;;;;;;;;2.75;2.75;;;;;41.80;100.00;101348.88;5077135;27;51074;-37
2022/10/04 08:15:35;;;;;;;;;4.00;2.50;;;;;41.05;100.00;101353.75;5077196;27;51365;-37
2022/10/04 08:18:33;;;;;;;;;0.00;0.00;;;;;41.31;100.00;101356.03;5077600;27;51089;-38
2022/10/04 08:21:44;;;;;;;;;2.50;2.25;;;;;41.33;100.00;101358.59;5078519;27;51359;-39
2022/10/04 08:25:00;;;;;;;;;8.25;6.50;;;;;40.74;100.00;101365.91;5079391;27;51167;-37
2022/10/04 08:31:25;;;;;;;;;5.75;4.25;;;;;39.84;100.00;101353.59;5078970;27;51043;-40
2022/10/04 08:34:25;;;;;;;;;3.75;2.25;;;;;39.24;100.00;101364.28;5078246;27;51387;-39
2022/10/04 08:37:16;;;;;;;;;6.75;5.50;;;;;38.65;100.00;101368.25;5075579;27;51272;-38
2022/10/04 08:40:07;;;;;;;;;4.50;3.75;;;;;38.23;100.00;101370.13;5075870;27;51153;-39
2022/10/04 08:43:09;;;;;;;;;3.25;3.25;;;;;37.81;100.00;101367.28;5075173;27;51187;-37
2022/10/04 08:45:55;;;;;;;;;8.00;5.00;;;;;37.45;100.00;101373.09;5077255;27;51140;-39
2022/10/04 08:48:58;;;;;;;;;3.50;2.75;;;;;37.21;100.00;101377.47;5078552;27;51352;-37
2022/10/04 08:51:42;;;;;;;;;2.00;2.00;;;;;36.93;100.00;101373.16;5077059;27;51209;-38
2022/10/04 08:54:55;;;;;;;;;2.75;2.25;;;;;36.46;100.00;101377.13;5078613;27;51232;-38
2022/10/04 08:58:04;;;;;;;;;6.50;3.25;;;;;35.97;100.00;101362.66;5080853;27;51342;-37
2022/10/04 09:01:19;;;;;;;;;4.00;2.25;;;;;35.63;100.00;101370.72;5076318;27;51505;-36
2022/10/04 09:04:36;;;;;;;;;10.00;7.00;;;;;35.40;100.00;101375.78;5079442;27;51175;-40
2022/10/04 09:07:30;;;;;;;;;6.00;5.00;;;;;35.21;100.00;101378.47;5067068;27;51184;-38
2022/10/04 09:10:30;;;;;;;;;5.25;4.00;;;;;35.06;100.00;101382.78;5077193;27;51204;-39
2022/10/04 09:13:29;;;;;;;;;4.00;4.00;;;;;35.06;100.00;101389.16;5073513;27;51235;-37
2022/10/04 09:17:01;;;;;;;;;3.50;3.50;;;;;35.18;100.00;101394.50;5078705;28;51005;-38
2022/10/04 09:20:40;;;;;;;;;4.75;2.75;;;;;35.11;100.00;101383.19;5074756;27;51667;-38
2022/10/04 09:23:32;;;;;;;;;3.25;2.75;;;;;34.88;100.00;101382.66;5076280;27;51139;-39
2022/10/04 09:26:28;;;;;;;;;3.25;3.25;;;;;34.69;100.00;101395.50;5078358;27;51354;-40
2022/10/04 09:29:42;;;;;;;;;4.50;3.75;;;;;34.52;100.00;101407.28;5079443;28;51086;-39
2022/10/04 09:32:48;;;;;;;;;2.75;2.75;;;;;34.42;100.00;101405.41;5079224;28;51107;-41
2022/10/04 09:35:58;;;;;;;;;4.50;3.00;;;;;34.37;100.00;101402.19;5078328;28;51169;-39
2022/10/04 09:39:16;;;;;;;;;7.75;6.25;;;;;34.42;100.00;101402.66;5079090;28;51069;-38
2022/10/04 09:42:09;;;;;;;;;3.25;1.25;;;;;34.38;100.00;101400.28;5061543;27;51086;-36
2022/10/04 09:45:20;;;;;;;;;3.00;3.00;;;;;34.30;100.00;101412.06;5078768;27;51191;-38
2022/10/04 09:48:13;;;;;;;;;4.25;3.25;;;;;34.34;100.00;101405.25;5078008;28;51165;-37
2022/10/04 09:51:07;;;;;;;;;4.75;2.75;;;;;34.33;100.00;101411.78;5078311;27;51184;-37
2022/10/04 09:54:31;;;;;;;;;4.75;4.75;;;;;34.17;100.00;101415.13;5074234;28;51472;-37
2022/10/04 09:57:30;;;;;;;;;3.50;3.50;;;;;34.09;100.00;101415.84;5078355;28;51288;-37
2022/10/04 10:00:22;;;;;;;;;4.75;4.00;;;;;34.12;100.00;101414.69;5074928;27;51142;-36
2022/10/04 10:03:22;;;;;;;;;2.00;0.00;;;;;34.08;100.00;101410.47;5064437;28;51333;-38
2022/10/04 10:06:45;;;;;;;;;3.75;2.25;;;;;34.06;100.00;101418.00;5079070;28;51128;-39
2022/10/04 10:16:32;;;;;;;;;2.00;1.00;;;;;33.84;100.00;101418.09;5082072;27;51096;-39
2022/10/04 10:19:17;;;;;;;;;0.75;0.75;;;;;33.74;100.00;101421.84;5080878;27;51175;-38
2022/10/04 10:22:09;;;;;;;;;0.00;0.00;;;;;33.81;100.00;101423.91;5079072;27;51150;-37
2022/10/04 10:24:54;;;;;;;;;0.25;0.25;;;;;33.91;100.00;101412.94;5080719;27;51234;-37
2022/10/04 10:28:13;;;;;;;;;0.00;0.00;;;;;33.89;100.00;101406.66;5080402;27;51144;-41
2022/10/04 10:31:21;;;;;;;;;4.00;0.50;;;;;33.97;100.00;101406.81;5078350;27;51268;-39
2022/10/04 10:34:26;;;;;;;;;1.75;1.75;;;;;33.82;100.00;101403.56;5076873;27;51545;-37
2022/10/04 10:37:21;;;;;;;;;6.50;4.00;;;;;33.71;100.00;101405.56;5074641;27;51201;-40
2022/10/04 10:40:11;;;;;;;;;2.75;0.75;;;;;33.64;100.00;101410.78;5077797;27;51119;-37
2022/10/04 10:42:59;;;;;;;;;1.75;1.00;;;;;33.46;100.00;101405.94;5079008;27;51155;-40
2022/10/04 10:46:17;;;;;;;;;2.00;1.00;;;;;33.35;100.00;101403.28;5080987;27;51098;-37
2022/10/04 10:49:38;;;;;;;;;2.00;2.00;;;;;33.42;100.00;101393.44;5076932;27;51228;-39
2022/10/04 10:52:53;;;;;;;;;3.00;2.50;;;;;33.50;100.00;101389.97;5045479;27;51481;-39
2022/10/04 10:56:07;;;;;;;;;1.75;1.00;;;;;33.39;100.00;101390.97;5077007;27;51487;-39
2022/10/04 10:59:22;;;;;;;;;3.75;1.00;;;;;33.18;100.00;101385.47;5077052;27;51216;-39
2022/10/04 11:02:15;;;;;;;;;6.00;2.00;;;;;33.18;100.00;101389.09;5073817;27;51144;-39
2022/10/04 11:05:38;;;;;;;;;2.00;1.00;;;;;33.03;100.00;101388.59;5080402;27;51134;-39
2022/10/04 11:08:59;;;;;;;;;1.00;1.00;;;;;32.93;100.00;101387.69;5080439;27;51136;-39
2022/10/04 11:12:05;;;;;;;;;0.50;0.50;;;;;32.91;100.00;101382.28;5078917;27;51163;-38
2022/10/04 11:15:27;;;;;;;;;2.75;1.50;;;;;33.11;100.00;101379.66;5081631;27;51169;-38
2022/10/04 11:18:49;;;;;;;;;2.25;1.00;;;;;33.38;100.00;101375.41;5079522;27;51111;-39
2022/10/04 11:22:21;;;;;;;;;1.00;1.00;;;;;33.42;100.00;101368.63;5079704;27;51258;-37
2022/10/04 11:25:43;;;;;;;;;3.00;0.75;;;;;33.47;100.00;101368.19;5065733;27;51175;-38
2022/10/04 11:28:50;;;;;;;;;2.00;0.00;;;;;33.42;100.00;101362.22;5078761;27;51216;-38
2022/10/04 11:31:59;;;;;;;;;1.50;1.50;;;;;33.41;100.00;101354.94;5079105;27;51342;-38
2022/10/04 11:34:59;;;;;;;;;2.00;1.00;;;;;33.39;100.00;101343.22;5077750;27;51472;-38
2022/10/04 11:38:10;;;;;;;;;1.50;1.50;;;;;33.31;100.00;101341.13;5077762;27;51100;-39
2022/10/04 11:41:12;;;;;;;;;1.00;0.00;;;;;33.07;100.00;101348.69;5067916;27;51225;-38
2022/10/04 11:44:23;;;;;;;;;3.00;2.00;;;;;32.91;100.00;101348.34;5071219;27;51178;-39
2022/10/04 11:47:26;;;;;;;;;0.75;0.00;;;;;32.80;100.00;101340.16;5075026;27;51243;-38
2022/10/04 11:50:41;;;;;;;;;2.00;0.00;;;;;32.66;100.00;101331.19;5075859;27;51430;-38
2022/10/04 11:54:16;;;;;;;;;2.75;1.00;;;;;32.57;100.00;101335.66;5078664;27;51128;-38
2022/10/04 11:57:04;;;;;;;;;2.00;0.00;;;;;32.58;100.00;101320.88;5038847;27;51182;-37
